Time;durP1;ratioP1;P1;durP2;ratioP2;P2;SDS_P1;SDS_P2;PMS_P1;PMS_P2;Temp;Humidity;BMP_temperature;BMP_pressure;BME280_temperature;BME280_humidity;BME280_pressure;Samples;Min_cycle;Max_cycle;Signal;HPM_P1;HPM_P2
2021/11/05 00:00:28;;;;;;;43.85;27.50;;;;;;;;;;2073353;28;20189;-63
2021/11/05 00:01:28;;;;;;;44.00;28.95;;;;;;;;;;2092609;28;20196;-64
2021/11/05 00:02:29;;;;;;;46.20;27.80;;;;;;;;;;2089013;28;20725;-64
2021/11/05 00:03:30;;;;;;;41.22;27.92;;;;;;;;;;2089446;28;20313;-65
2021/11/05 00:04:30;;;;;;;41.70;27.63;;;;;;;;;;2087650;28;20222;-65
2021/11/05 00:05:31;;;;;;;48.42;28.70;;;;;;;;;;2089724;28;20678;-64
2021/11/05 00:06:33;;;;;;;44.50;28.38;;;;;;;;;;2089481;28;20266;-65
2021/11/05 00:07:33;;;;;;;43.75;28.30;;;;;;;;;;2084954;28;20226;-64
2021/11/05 00:08:33;;;;;;;37.88;25.55;;;;;;;;;;2088342;28;20206;-64
2021/11/05 00:09:34;;;;;;;47.17;29.08;;;;;;;;;;2087522;28;20176;-64
2021/11/05 00:10:38;;;;;;;43.03;27.60;;;;;;;;;;2088283;28;20175;-64
2021/11/05 00:11:38;;;;;;;46.15;27.80;;;;;;;;;;2082260;28;20172;-63
2021/11/05 00:12:38;;;;;;;48.92;30.55;;;;;;;;;;2078216;28;20173;-60
2021/11/05 00:13:39;;;;;;;47.00;29.30;;;;;;;;;;2089934;28;20209;-64
2021/11/05 00:14:41;;;;;;;46.00;28.73;;;;;;;;;;2081625;28;20185;-63
2021/11/05 00:15:41;;;;;;;49.58;28.00;;;;;;;;;;2067487;28;20236;-65
2021/11/05 00:16:42;;;;;;;43.13;28.80;;;;;;;;;;2079465;28;20238;-66
2021/11/05 00:17:42;;;;;;;43.35;28.05;;;;;;;;;;2089829;28;20312;-64
2021/11/05 00:18:43;;;;;;;48.47;29.52;;;;;;;;;;2090448;28;20185;-64
2021/11/05 00:19:43;;;;;;;46.40;29.65;;;;;;;;;;2080352;28;20176;-64
2021/11/05 00:20:43;;;;;;;48.83;28.70;;;;;;;;;;2080176;28;20168;-64
2021/11/05 00:21:43;;;;;;;48.35;28.80;;;;;;;;;;2080988;28;20179;-65
2021/11/05 00:22:44;;;;;;;45.10;28.52;;;;;;;;;;2080335;28;20199;-63
2021/11/05 00:23:44;;;;;;;46.88;31.08;;;;;;;;;;2080494;28;20203;-64
2021/11/05 00:24:44;;;;;;;47.38;29.92;;;;;;;;;;2089810;28;20171;-62
2021/11/05 00:25:45;;;;;;;48.00;28.90;;;;;;;;;;2088441;28;20214;-64
2021/11/05 00:26:45;;;;;;;49.57;30.20;;;;;;;;;;2072407;28;20181;-62
2021/11/05 00:27:46;;;;;;;51.60;30.42;;;;;;;;;;2081361;28;20168;-63
2021/11/05 00:28:46;;;;;;;55.13;32.53;;;;;;;;;;2089015;28;20180;-63
2021/11/05 00:29:46;;;;;;;50.77;29.60;;;;;;;;;;2089460;28;20174;-64
2021/11/05 00:30:47;;;;;;;51.35;31.52;;;;;;;;;;2088406;28;20181;-63
2021/11/05 00:31:47;;;;;;;49.53;30.00;;;;;;;;;;2089019;28;20175;-64
2021/11/05 00:32:47;;;;;;;49.90;28.52;;;;;;;;;;2081775;28;20184;-64
2021/11/05 00:33:48;;;;;;;49.90;29.92;;;;;;;;;;2090404;28;20211;-63
2021/11/05 00:34:48;;;;;;;49.35;31.27;;;;;;;;;;2085544;28;20183;-63
2021/11/05 00:35:48;;;;;;;46.07;29.10;;;;;;;;;;2081561;28;20309;-61
2021/11/05 00:36:49;;;;;;;52.22;28.88;;;;;;;;;;2084777;28;20172;-61
2021/11/05 00:37:49;;;;;;;48.33;29.75;;;;;;;;;;2085299;28;20319;-63
2021/11/05 00:38:49;;;;;;;46.75;29.02;;;;;;;;;;2084760;28;20650;-64
2021/11/05 00:39:49;;;;;;;54.27;32.40;;;;;;;;;;2085568;28;20272;-65
2021/11/05 00:40:50;;;;;;;48.65;29.85;;;;;;;;;;2089329;28;20262;-63
2021/11/05 00:41:50;;;;;;;50.80;29.98;;;;;;;;;;2089084;28;20189;-63
2021/11/05 00:42:50;;;;;;;52.85;31.73;;;;;;;;;;2079327;28;20283;-63
2021/11/05 00:43:51;;;;;;;53.15;31.85;;;;;;;;;;2078019;28;20235;-63
2021/11/05 00:44:51;;;;;;;49.22;29.98;;;;;;;;;;2089804;28;20217;-62
2021/11/05 00:45:52;;;;;;;50.85;31.00;;;;;;;;;;2087611;28;20218;-64
2021/11/05 00:46:52;;;;;;;52.10;29.98;;;;;;;;;;2080586;28;20255;-63
2021/11/05 00:47:52;;;;;;;46.10;28.23;;;;;;;;;;2080879;28;20188;-63
2021/11/05 00:48:53;;;;;;;50.77;30.40;;;;;;;;;;2083424;28;20187;-63
2021/11/05 00:49:53;;;;;;;51.40;30.60;;;;;;;;;;2080351;28;20169;-64
2021/11/05 00:50:53;;;;;;;49.20;29.85;;;;;;;;;;2088610;28;20183;-63
2021/11/05 00:51:54;;;;;;;50.13;29.73;;;;;;;;;;2088967;28;20168;-64
2021/11/05 00:52:54;;;;;;;47.45;29.25;;;;;;;;;;2087701;28;20674;-64
2021/11/05 00:53:55;;;;;;;49.63;29.67;;;;;;;;;;2082812;28;20290;-63
2021/11/05 00:54:55;;;;;;;51.65;30.38;;;;;;;;;;2087411;28;20177;-60
2021/11/05 00:55:55;;;;;;;48.22;29.23;;;;;;;;;;2088604;28;20210;-63
2021/11/05 00:56:56;;;;;;;51.22;29.45;;;;;;;;;;2079793;28;20222;-64
2021/11/05 00:57:56;;;;;;;46.65;29.80;;;;;;;;;;2072328;28;20189;-64
2021/11/05 00:58:56;;;;;;;44.13;27.20;;;;;;;;;;2075069;28;20178;-64
2021/11/05 00:59:56;;;;;;;44.45;26.70;;;;;;;;;;2090269;28;20197;-64
2021/11/05 01:00:57;;;;;;;47.10;28.35;;;;;;;;;;2088978;28;20171;-63
2021/11/05 01:01:57;;;;;;;43.85;27.90;;;;;;;;;;2083672;28;20689;-62
2021/11/05 01:02:57;;;;;;;48.58;29.58;;;;;;;;;;2083543;28;20712;-68
2021/11/05 01:03:58;;;;;;;45.17;27.60;;;;;;;;;;2088761;28;20220;-64
2021/11/05 01:04:58;;;;;;;42.28;27.92;;;;;;;;;;2075697;28;20173;-63
2021/11/05 01:05:58;;;;;;;44.15;27.50;;;;;;;;;;2071984;28;20212;-63
2021/11/05 01:06:58;;;;;;;42.05;27.38;;;;;;;;;;2076060;28;20177;-62
2021/11/05 01:07:59;;;;;;;40.70;26.42;;;;;;;;;;2080879;28;20160;-63
2021/11/05 01:09:00;;;;;;;42.03;26.83;;;;;;;;;;2076415;28;20177;-64
2021/11/05 01:10:00;;;;;;;44.47;27.70;;;;;;;;;;2080891;28;20160;-64
2021/11/05 01:11:01;;;;;;;46.38;28.02;;;;;;;;;;2080443;28;20240;-64
2021/11/05 01:12:01;;;;;;;46.40;27.98;;;;;;;;;;2088224;28;20188;-63
2021/11/05 01:13:02;;;;;;;44.30;27.83;;;;;;;;;;2085430;28;20633;-64
2021/11/05 01:14:03;;;;;;;50.33;30.13;;;;;;;;;;2089654;28;20651;-63
2021/11/05 01:15:04;;;;;;;44.15;27.08;;;;;;;;;;2084925;28;20172;-66
2021/11/05 01:16:04;;;;;;;44.20;29.07;;;;;;;;;;2080067;28;20210;-65
2021/11/05 01:17:04;;;;;;;45.63;29.10;;;;;;;;;;2080564;28;20187;-64
2021/11/05 01:18:05;;;;;;;41.10;27.60;;;;;;;;;;2088890;28;20175;-64
2021/11/05 01:19:05;;;;;;;43.35;26.80;;;;;;;;;;2073520;28;20165;-63
2021/11/05 01:20:07;;;;;;;40.40;26.63;;;;;;;;;;2074519;28;20188;-65
2021/11/05 01:21:08;;;;;;;44.28;28.50;;;;;;;;;;2088494;28;20171;-64
2021/11/05 01:22:09;;;;;;;44.28;27.60;;;;;;;;;;2088561;28;20278;-62
2021/11/05 01:23:09;;;;;;;42.03;26.67;;;;;;;;;;2088808;28;20191;-63
2021/11/05 01:24:10;;;;;;;46.60;29.08;;;;;;;;;;2088126;28;20164;-59
2021/11/05 01:25:11;;;;;;;40.37;26.00;;;;;;;;;;2089079;28;20172;-62
2021/11/05 01:26:11;;;;;;;39.17;25.92;;;;;;;;;;2080816;28;20680;-63
2021/11/05 01:27:12;;;;;;;43.80;26.15;;;;;;;;;;2080063;28;20177;-63
2021/11/05 01:28:12;;;;;;;41.90;27.00;;;;;;;;;;2079454;28;20206;-62
2021/11/05 01:29:12;;;;;;;41.28;26.15;;;;;;;;;;2083032;28;20174;-63
2021/11/05 01:30:13;;;;;;;46.33;27.83;;;;;;;;;;2087960;28;20181;-63
2021/11/05 01:31:13;;;;;;;42.25;28.13;;;;;;;;;;2088490;28;20245;-63
2021/11/05 01:32:14;;;;;;;39.95;26.65;;;;;;;;;;2088652;28;20213;-64
2021/11/05 01:33:14;;;;;;;40.47;26.17;;;;;;;;;;2088734;28;20176;-63
2021/11/05 01:34:15;;;;;;;41.95;27.50;;;;;;;;;;2088743;28;20560;-63
2021/11/05 01:35:15;;;;;;;42.45;26.85;;;;;;;;;;2083174;28;20188;-63
2021/11/05 01:36:16;;;;;;;39.08;27.35;;;;;;;;;;2081875;28;20172;-64
2021/11/05 01:37:16;;;;;;;44.13;28.65;;;;;;;;;;2083970;28;20175;-64
2021/11/05 01:38:16;;;;;;;44.80;29.48;;;;;;;;;;2065095;28;20565;-63
2021/11/05 01:39:17;;;;;;;43.60;27.33;;;;;;;;;;2071291;28;20227;-63
2021/11/05 01:40:17;;;;;;;43.90;27.52;;;;;;;;;;2085980;28;20197;-62
2021/11/05 01:41:17;;;;;;;46.60;29.50;;;;;;;;;;2088235;28;20176;-63
2021/11/05 01:42:17;;;;;;;42.28;27.05;;;;;;;;;;2085765;28;20199;-64
2021/11/05 01:43:18;;;;;;;44.23;28.67;;;;;;;;;;2090696;28;20175;-65
2021/11/05 01:44:21;;;;;;;42.83;27.90;;;;;;;;;;2087314;28;20191;-63
2021/11/05 01:45:22;;;;;;;44.40;27.87;;;;;;;;;;2088204;28;20261;-63
2021/11/05 01:46:22;;;;;;;44.10;28.02;;;;;;;;;;2091423;28;20164;-68
2021/11/05 01:47:22;;;;;;;42.75;28.58;;;;;;;;;;2082101;28;20234;-66
2021/11/05 01:48:22;;;;;;;45.70;29.53;;;;;;;;;;2087028;28;20172;-64
2021/11/05 01:49:23;;;;;;;49.97;30.50;;;;;;;;;;2088480;28;20262;-64
2021/11/05 01:50:23;;;;;;;45.53;28.80;;;;;;;;;;2079733;28;20188;-63
2021/11/05 01:51:23;;;;;;;45.38;28.27;;;;;;;;;;2072221;28;20165;-63
2021/11/05 01:52:24;;;;;;;46.13;27.33;;;;;;;;;;2078941;28;20918;-63
2021/11/05 01:53:24;;;;;;;45.20;29.58;;;;;;;;;;2091883;28;20190;-64
2021/11/05 01:54:25;;;;;;;47.25;29.73;;;;;;;;;;2082595;28;20203;-64
2021/11/05 01:55:25;;;;;;;45.10;27.83;;;;;;;;;;2073949;28;20209;-64
2021/11/05 01:56:26;;;;;;;44.40;26.63;;;;;;;;;;2073960;28;20180;-65
2021/11/05 01:57:26;;;;;;;41.50;28.40;;;;;;;;;;2079218;28;20277;-64
2021/11/05 01:58:26;;;;;;;43.20;28.42;;;;;;;;;;2081550;28;20263;-65
2021/11/05 01:59:28;;;;;;;46.78;28.25;;;;;;;;;;2088865;28;20180;-65
2021/11/05 02:00:30;;;;;;;45.42;27.05;;;;;;;;;;2082503;28;20192;-63
2021/11/05 02:01:30;;;;;;;43.88;28.15;;;;;;;;;;2082106;28;20176;-65
2021/11/05 02:02:31;;;;;;;41.10;27.60;;;;;;;;;;2085901;28;20199;-64
2021/11/05 02:03:31;;;;;;;46.00;27.17;;;;;;;;;;2078903;28;20267;-64
2021/11/05 02:04:32;;;;;;;46.20;29.47;;;;;;;;;;2081093;28;20208;-63
2021/11/05 02:05:32;;;;;;;45.53;28.70;;;;;;;;;;2081517;28;20215;-64
2021/11/05 02:06:32;;;;;;;46.65;28.75;;;;;;;;;;2081220;28;20176;-64
2021/11/05 02:07:34;;;;;;;47.77;30.00;;;;;;;;;;2078711;28;20214;-64
2021/11/05 02:08:34;;;;;;;43.15;27.45;;;;;;;;;;2076937;28;20165;-64
2021/11/05 02:09:37;;;;;;;46.00;28.15;;;;;;;;;;2089946;28;20270;-63
2021/11/05 02:10:38;;;;;;;47.38;28.60;;;;;;;;;;2089620;28;20554;-64
2021/11/05 02:11:38;;;;;;;42.75;27.25;;;;;;;;;;2087003;28;20174;-64
2021/11/05 02:12:39;;;;;;;51.83;29.80;;;;;;;;;;2080655;28;20204;-62
2021/11/05 02:13:41;;;;;;;39.08;26.30;;;;;;;;;;2089586;28;20175;-64
2021/11/05 02:14:43;;;;;;;39.95;25.85;;;;;;;;;;2089768;28;20520;-63
2021/11/05 02:15:43;;;;;;;41.38;26.73;;;;;;;;;;2089420;28;20683;-64
2021/11/05 02:16:44;;;;;;;45.42;27.05;;;;;;;;;;2088925;28;20262;-62
2021/11/05 02:17:46;;;;;;;43.60;27.50;;;;;;;;;;2085102;28;20176;-65
2021/11/05 02:18:46;;;;;;;42.80;28.23;;;;;;;;;;2089024;28;20602;-65
2021/11/05 02:19:47;;;;;;;45.80;28.65;;;;;;;;;;2088293;28;20180;-64
2021/11/05 02:20:53;;;;;;;50.97;29.40;;;;;;;;;;2082451;28;20188;-64
2021/11/05 02:21:54;;;;;;;44.22;27.85;;;;;;;;;;2084638;28;20167;-64
2021/11/05 02:22:55;;;;;;;46.67;29.40;;;;;;;;;;2087985;28;20253;-65
2021/11/05 02:23:55;;;;;;;45.95;27.40;;;;;;;;;;2078054;28;20567;-64
2021/11/05 02:24:55;;;;;;;46.78;29.17;;;;;;;;;;2083619;28;20172;-64
2021/11/05 02:25:56;;;;;;;46.13;28.60;;;;;;;;;;2084527;28;20182;-64
2021/11/05 02:26:58;;;;;;;42.90;27.95;;;;;;;;;;2083544;28;20555;-63
2021/11/05 02:27:59;;;;;;;45.23;27.47;;;;;;;;;;2089959;28;20183;-65
2021/11/05 02:28:59;;;;;;;45.80;27.48;;;;;;;;;;2081087;28;20599;-63
2021/11/05 02:30:00;;;;;;;42.90;27.98;;;;;;;;;;2082299;28;20215;-64
2021/11/05 02:31:01;;;;;;;45.28;27.70;;;;;;;;;;2090315;28;20517;-64
2021/11/05 02:32:02;;;;;;;49.92;28.67;;;;;;;;;;2090034;28;20179;-65
2021/11/05 02:33:02;;;;;;;43.08;26.85;;;;;;;;;;2091438;28;20199;-64
2021/11/05 02:34:02;;;;;;;46.77;27.33;;;;;;;;;;2086211;28;20705;-64
2021/11/05 02:35:04;;;;;;;46.55;27.80;;;;;;;;;;2089925;28;20172;-64
2021/11/05 02:36:04;;;;;;;46.60;28.50;;;;;;;;;;2085493;28;20180;-65
2021/11/05 02:37:05;;;;;;;46.50;28.42;;;;;;;;;;2090588;28;20171;-64
2021/11/05 02:38:06;;;;;;;41.35;25.83;;;;;;;;;;2085550;28;20181;-64
2021/11/05 02:39:07;;;;;;;40.63;25.05;;;;;;;;;;2091202;28;20179;-65
2021/11/05 02:40:08;;;;;;;45.17;27.02;;;;;;;;;;2090853;28;20217;-63
2021/11/05 02:41:08;;;;;;;46.47;26.40;;;;;;;;;;2090044;28;20260;-64
2021/11/05 02:42:09;;;;;;;41.03;25.60;;;;;;;;;;2091514;28;20263;-64
2021/11/05 02:43:09;;;;;;;42.55;26.65;;;;;;;;;;2089171;28;20175;-63
2021/11/05 02:44:09;;;;;;;41.22;26.70;;;;;;;;;;2090246;28;20636;-64
2021/11/05 02:45:10;;;;;;;42.83;26.97;;;;;;;;;;2088637;28;20184;-65
2021/11/05 02:46:10;;;;;;;46.20;28.03;;;;;;;;;;2065497;28;20333;-64
2021/11/05 02:47:24;;;;;;;45.42;25.35;;;;;;;;;;2068739;28;20292;-64
2021/11/05 02:48:27;;;;;;;43.58;26.60;;;;;;;;;;2084269;28;20177;-65
2021/11/05 02:49:27;;;;;;;42.00;25.57;;;;;;;;;;2090132;28;20175;-69
2021/11/05 02:50:27;;;;;;;41.45;24.88;;;;;;;;;;2090378;28;20279;-64
2021/11/05 02:51:28;;;;;;;41.83;24.58;;;;;;;;;;2088428;28;20164;-64
2021/11/05 02:52:28;;;;;;;42.03;24.60;;;;;;;;;;2089927;28;20195;-64
2021/11/05 02:53:28;;;;;;;43.13;25.10;;;;;;;;;;2088663;28;20674;-65
2021/11/05 02:54:29;;;;;;;40.17;24.83;;;;;;;;;;2082092;28;20754;-60
2021/11/05 02:55:29;;;;;;;44.03;26.23;;;;;;;;;;2081792;28;20200;-61
2021/11/05 02:56:29;;;;;;;41.63;24.83;;;;;;;;;;2094024;28;20261;-64
2021/11/05 02:57:30;;;;;;;46.45;26.58;;;;;;;;;;2094620;28;20256;-64
2021/11/05 02:58:30;;;;;;;40.63;26.70;;;;;;;;;;2076425;28;20177;-64
2021/11/05 02:59:30;;;;;;;42.80;26.05;;;;;;;;;;2078885;28;20251;-64
2021/11/05 03:00:30;;;;;;;44.63;26.30;;;;;;;;;;2088171;28;20253;-64
2021/11/05 03:01:31;;;;;;;42.53;26.13;;;;;;;;;;2089674;28;20187;-63
2021/11/05 03:02:32;;;;;;;40.20;25.87;;;;;;;;;;2088387;28;20294;-64
2021/11/05 03:03:32;;;;;;;43.97;25.75;;;;;;;;;;2088819;28;20276;-65
2021/11/05 03:04:32;;;;;;;46.13;26.40;;;;;;;;;;2090375;28;20191;-64
2021/11/05 03:05:33;;;;;;;43.97;25.57;;;;;;;;;;2090720;28;20202;-64
2021/11/05 03:06:34;;;;;;;41.10;25.50;;;;;;;;;;2090215;28;20554;-64
2021/11/05 03:07:34;;;;;;;45.53;26.45;;;;;;;;;;2077968;28;20211;-64
2021/11/05 03:08:34;;;;;;;40.15;26.45;;;;;;;;;;2079174;28;20177;-65
2021/11/05 03:09:36;;;;;;;39.83;24.55;;;;;;;;;;2090103;28;20535;-65
2021/11/05 03:10:37;;;;;;;37.47;23.23;;;;;;;;;;2090245;28;20195;-65
2021/11/05 03:11:37;;;;;;;37.25;23.27;;;;;;;;;;2081702;28;20183;-64
2021/11/05 03:12:38;;;;;;;37.58;22.33;;;;;;;;;;2084051;28;20178;-68
2021/11/05 03:13:39;;;;;;;38.57;23.67;;;;;;;;;;2089416;28;20652;-64
2021/11/05 03:14:40;;;;;;;41.30;23.88;;;;;;;;;;2088776;28;20179;-64
2021/11/05 03:15:40;;;;;;;38.58;23.65;;;;;;;;;;2089479;28;20195;-63
2021/11/05 03:16:40;;;;;;;37.03;23.85;;;;;;;;;;2090446;28;20179;-64
2021/11/05 03:17:41;;;;;;;38.80;23.83;;;;;;;;;;2083183;28;20613;-64
2021/11/05 03:18:42;;;;;;;41.53;24.63;;;;;;;;;;2089025;28;20196;-64
2021/11/05 03:19:42;;;;;;;42.03;25.00;;;;;;;;;;2084636;28;20181;-64
2021/11/05 03:20:43;;;;;;;35.45;24.60;;;;;;;;;;2089457;28;20262;-64
2021/11/05 03:21:44;;;;;;;32.80;23.27;;;;;;;;;;2090216;28;20194;-64
2021/11/05 03:22:44;;;;;;;38.47;22.40;;;;;;;;;;2089522;28;20714;-64
2021/11/05 03:23:44;;;;;;;38.25;23.60;;;;;;;;;;2089917;28;20176;-65
2021/11/05 03:24:44;;;;;;;37.13;21.50;;;;;;;;;;2081160;28;20196;-64
2021/11/05 03:25:45;;;;;;;35.63;22.05;;;;;;;;;;2088904;28;20855;-64
2021/11/05 03:26:45;;;;;;;39.78;22.55;;;;;;;;;;2081235;28;20176;-64
2021/11/05 03:27:46;;;;;;;36.77;22.53;;;;;;;;;;2089571;28;20175;-64
2021/11/05 03:28:46;;;;;;;34.85;22.73;;;;;;;;;;2090205;28;20186;-64
2021/11/05 03:29:46;;;;;;;38.60;24.20;;;;;;;;;;2094557;28;20218;-65
2021/11/05 03:30:47;;;;;;;37.47;23.67;;;;;;;;;;2090636;28;20165;-64
2021/11/05 03:31:47;;;;;;;37.42;23.40;;;;;;;;;;2085276;28;20160;-65
2021/11/05 03:32:47;;;;;;;37.55;24.73;;;;;;;;;;2090809;28;20206;-65
2021/11/05 03:33:47;;;;;;;40.63;24.70;;;;;;;;;;2091792;28;20175;-65
2021/11/05 03:34:48;;;;;;;39.23;24.80;;;;;;;;;;2086654;28;20195;-64
2021/11/05 03:35:48;;;;;;;40.50;24.75;;;;;;;;;;2092216;23;20513;-55
2021/11/05 03:36:48;;;;;;;40.77;25.80;;;;;;;;;;2079420;28;20267;-54
2021/11/05 03:37:48;;;;;;;38.67;24.13;;;;;;;;;;2080735;28;20250;-51
2021/11/05 03:38:49;;;;;;;41.40;25.50;;;;;;;;;;2075669;28;20169;-52
2021/11/05 03:39:49;;;;;;;46.40;25.25;;;;;;;;;;2079524;28;20168;-57
2021/11/05 03:40:50;;;;;;;48.03;26.10;;;;;;;;;;2080325;28;20288;-53
2021/11/05 03:41:50;;;;;;;43.63;27.45;;;;;;;;;;2083509;28;20249;-54
2021/11/05 03:42:52;;;;;;;38.92;23.95;;;;;;;;;;2083203;28;20662;-54
2021/11/05 03:43:52;;;;;;;39.20;23.98;;;;;;;;;;2082697;28;20172;-53
2021/11/05 03:44:53;;;;;;;43.80;24.90;;;;;;;;;;2083113;28;20637;-53
2021/11/05 03:45:53;;;;;;;37.35;22.23;;;;;;;;;;2082582;28;20562;-54
2021/11/05 03:46:53;;;;;;;40.70;23.40;;;;;;;;;;2084347;28;20168;-52
2021/11/05 03:47:53;;;;;;;38.08;23.40;;;;;;;;;;2084738;28;20172;-54
2021/11/05 03:48:54;;;;;;;37.85;22.90;;;;;;;;;;2085346;28;20172;-58
2021/11/05 03:49:54;;;;;;;34.60;21.65;;;;;;;;;;2087138;28;20648;-53
2021/11/05 03:50:55;;;;;;;39.17;21.20;;;;;;;;;;2087083;28;20188;-52
2021/11/05 03:51:56;;;;;;;37.03;23.45;;;;;;;;;;2087523;28;20183;-52
2021/11/05 03:52:56;;;;;;;32.95;20.92;;;;;;;;;;2085301;28;20172;-53
2021/11/05 03:53:57;;;;;;;35.78;22.77;;;;;;;;;;2079739;28;20189;-53
2021/11/05 03:54:57;;;;;;;41.70;25.25;;;;;;;;;;2078164;28;20180;-53
2021/11/05 03:55:58;;;;;;;38.90;23.37;;;;;;;;;;2077272;28;20205;-51
2021/11/05 03:56:58;;;;;;;45.47;25.07;;;;;;;;;;2067592;28;20571;-55
2021/11/05 03:57:58;;;;;;;39.33;23.23;;;;;;;;;;2076269;28;20165;-53
2021/11/05 03:58:59;;;;;;;37.92;23.00;;;;;;;;;;2079165;28;20205;-52
2021/11/05 03:59:59;;;;;;;38.75;24.70;;;;;;;;;;2077165;28;20294;-52
2021/11/05 04:00:59;;;;;;;37.83;23.05;;;;;;;;;;2075376;28;20169;-51
2021/11/05 04:01:59;;;;;;;38.23;23.73;;;;;;;;;;2075054;28;20209;-51
2021/11/05 04:03:00;;;;;;;40.00;23.05;;;;;;;;;;2083917;28;20295;-51
2021/11/05 04:04:00;;;;;;;39.08;23.85;;;;;;;;;;2079399;28;20186;-52
2021/11/05 04:05:00;;;;;;;41.30;24.33;;;;;;;;;;2077862;28;20687;-54
2021/11/05 04:06:00;;;;;;;36.13;21.83;;;;;;;;;;2076065;28;20192;-54
2021/11/05 04:07:01;;;;;;;36.17;21.43;;;;;;;;;;2076507;28;20186;-55
2021/11/05 04:08:01;;;;;;;39.13;23.55;;;;;;;;;;2079079;28;20596;-55
2021/11/05 04:09:02;;;;;;;39.23;23.73;;;;;;;;;;2070177;28;20184;-54
2021/11/05 04:10:03;;;;;;;37.17;23.48;;;;;;;;;;2074039;28;20193;-56
2021/11/05 04:11:03;;;;;;;39.08;22.50;;;;;;;;;;2071995;28;20646;-52
2021/11/05 04:12:03;;;;;;;35.57;23.57;;;;;;;;;;2080302;28;20687;-57
2021/11/05 04:13:05;;;;;;;35.45;21.77;;;;;;;;;;2076434;28;20187;-54
2021/11/05 04:14:05;;;;;;;37.97;23.05;;;;;;;;;;2076939;28;20189;-54
2021/11/05 04:15:06;;;;;;;35.58;21.27;;;;;;;;;;2075753;28;20197;-57
2021/11/05 04:16:07;;;;;;;35.90;22.30;;;;;;;;;;2079073;28;20200;-52
2021/11/05 04:17:07;;;;;;;40.92;22.45;;;;;;;;;;2075939;28;20269;-52
2021/11/05 04:18:07;;;;;;;36.80;22.40;;;;;;;;;;2080048;28;20173;-53
2021/11/05 04:19:08;;;;;;;40.22;23.23;;;;;;;;;;2073992;28;20676;-52
2021/11/05 04:20:09;;;;;;;38.95;22.20;;;;;;;;;;2076982;28;20204;-54
2021/11/05 04:21:09;;;;;;;39.03;21.93;;;;;;;;;;2071683;28;20762;-55
2021/11/05 04:22:10;;;;;;;42.38;24.17;;;;;;;;;;2074678;28;20176;-55
2021/11/05 04:23:11;;;;;;;40.80;23.10;;;;;;;;;;2075449;28;20199;-56
2021/11/05 04:24:12;;;;;;;33.57;20.57;;;;;;;;;;2080557;28;20165;-56
2021/11/05 04:25:13;;;;;;;39.73;23.60;;;;;;;;;;2077313;28;20176;-55
2021/11/05 04:26:13;;;;;;;41.45;25.30;;;;;;;;;;2078634;28;20739;-53
2021/11/05 04:27:13;;;;;;;38.57;22.67;;;;;;;;;;2073704;28;20168;-55
2021/11/05 04:28:14;;;;;;;37.25;22.65;;;;;;;;;;2077696;28;20169;-55
2021/11/05 04:29:16;;;;;;;38.30;23.45;;;;;;;;;;2073624;28;20180;-58
2021/11/05 04:30:16;;;;;;;33.40;19.73;;;;;;;;;;2077971;28;20187;-58
2021/11/05 04:31:17;;;;;;;35.77;22.20;;;;;;;;;;2080196;28;20180;-56
2021/11/05 04:32:17;;;;;;;36.00;22.60;;;;;;;;;;2079281;28;20173;-52
2021/11/05 04:33:18;;;;;;;39.70;19.90;;;;;;;;;;2077886;28;20654;-54
2021/11/05 04:34:18;;;;;;;38.03;22.17;;;;;;;;;;2077170;28;20169;-52
2021/11/05 04:35:18;;;;;;;38.88;21.58;;;;;;;;;;2077922;28;20183;-52
2021/11/05 04:36:21;;;;;;;38.43;21.00;;;;;;;;;;2074740;28;20220;-54
2021/11/05 04:37:21;;;;;;;35.10;21.63;;;;;;;;;;2078420;28;20176;-58
2021/11/05 04:38:21;;;;;;;33.30;20.80;;;;;;;;;;2078827;28;20182;-53
2021/11/05 04:39:24;;;;;;;34.63;21.53;;;;;;;;;;2080132;28;20299;-52
2021/11/05 04:40:24;;;;;;;37.80;21.03;;;;;;;;;;2081369;28;20176;-52
2021/11/05 04:41:24;;;;;;;40.03;23.07;;;;;;;;;;2079957;28;20273;-54
2021/11/05 04:42:25;;;;;;;36.33;21.00;;;;;;;;;;2079016;28;20211;-52
2021/11/05 04:43:25;;;;;;;34.73;21.53;;;;;;;;;;2076638;28;20192;-54
2021/11/05 04:44:25;;;;;;;34.67;21.20;;;;;;;;;;2070923;28;20212;-54
2021/11/05 04:45:25;;;;;;;35.47;22.07;;;;;;;;;;2077739;28;20168;-52
2021/11/05 04:46:26;;;;;;;38.90;20.10;;;;;;;;;;2077745;28;20188;-52
2021/11/05 04:47:26;;;;;;;36.22;22.35;;;;;;;;;;2071014;28;20193;-52
2021/11/05 04:48:26;;;;;;;33.20;20.03;;;;;;;;;;2068983;28;20189;-52
2021/11/05 04:49:27;;;;;;;35.97;21.80;;;;;;;;;;2071423;28;20192;-52
2021/11/05 04:50:27;;;;;;;34.10;21.00;;;;;;;;;;2072815;28;20228;-51
2021/11/05 04:51:27;;;;;;;37.53;20.35;;;;;;;;;;2076416;28;20184;-53
2021/11/05 04:52:28;;;;;;;33.47;19.70;;;;;;;;;;2078453;28;20183;-52
2021/11/05 04:53:28;;;;;;;36.40;20.88;;;;;;;;;;2073826;28;20188;-52
2021/11/05 04:54:28;;;;;;;35.95;20.50;;;;;;;;;;2076360;28;20184;-52
2021/11/05 04:55:29;;;;;;;34.13;21.13;;;;;;;;;;2080052;28;20603;-54
2021/11/05 04:56:29;;;;;;;31.33;20.10;;;;;;;;;;2079115;28;20183;-53
2021/11/05 04:57:29;;;;;;;34.50;21.23;;;;;;;;;;2077329;28;20184;-55
2021/11/05 04:58:30;;;;;;;32.70;20.67;;;;;;;;;;2075192;28;20207;-52
2021/11/05 04:59:31;;;;;;;32.77;21.07;;;;;;;;;;2076018;28;20235;-52
2021/11/05 05:00:31;;;;;;;33.47;20.77;;;;;;;;;;2077300;28;20710;-55
2021/11/05 05:01:31;;;;;;;35.42;20.25;;;;;;;;;;2072261;28;20185;-52
2021/11/05 05:02:31;;;;;;;34.60;20.30;;;;;;;;;;2076581;28;20684;-53
2021/11/05 05:03:32;;;;;;;34.50;20.60;;;;;;;;;;2070854;28;20236;-53
2021/11/05 05:04:32;;;;;;;33.55;19.85;;;;;;;;;;2076967;28;20188;-51
2021/11/05 05:05:32;;;;;;;34.05;20.25;;;;;;;;;;2074589;28;20173;-54
2021/11/05 05:06:33;;;;;;;33.90;20.08;;;;;;;;;;2073501;28;20199;-53
2021/11/05 05:07:33;;;;;;;36.57;20.93;;;;;;;;;;2078302;28;20269;-53
2021/11/05 05:08:33;;;;;;;35.60;19.67;;;;;;;;;;2071703;28;20175;-54
2021/11/05 05:09:33;;;;;;;32.77;18.13;;;;;;;;;;2068418;28;20192;-52
2021/11/05 05:10:34;;;;;;;33.35;20.92;;;;;;;;;;2073588;28;20203;-53
2021/11/05 05:11:34;;;;;;;35.20;19.85;;;;;;;;;;2068226;28;20185;-55
2021/11/05 05:12:35;;;;;;;30.63;18.25;;;;;;;;;;2068508;28;20681;-55
2021/11/05 05:13:35;;;;;;;30.83;19.67;;;;;;;;;;2075274;28;20749;-57
2021/11/05 05:14:35;;;;;;;35.00;20.10;;;;;;;;;;2079660;28;20172;-56
2021/11/05 05:15:35;;;;;;;32.57;19.53;;;;;;;;;;2083058;28;20208;-56
2021/11/05 05:16:36;;;;;;;34.00;20.77;;;;;;;;;;2084583;28;20254;-55
2021/11/05 05:17:36;;;;;;;33.57;18.07;;;;;;;;;;2082157;28;20188;-55
2021/11/05 05:18:37;;;;;;;32.07;19.30;;;;;;;;;;2082946;28;20187;-55
2021/11/05 05:19:37;;;;;;;33.78;17.67;;;;;;;;;;2074335;28;20271;-56
2021/11/05 05:20:37;;;;;;;34.22;20.42;;;;;;;;;;2081804;28;20214;-56
2021/11/05 05:21:38;;;;;;;36.93;20.50;;;;;;;;;;2082599;28;20184;-56
2021/11/05 05:22:38;;;;;;;35.85;18.85;;;;;;;;;;2077597;28;20754;-56
2021/11/05 05:23:39;;;;;;;33.00;20.03;;;;;;;;;;2079924;28;20166;-52
2021/11/05 05:24:39;;;;;;;34.15;21.08;;;;;;;;;;2080491;28;20180;-54
2021/11/05 05:25:45;;;;;;;29.65;19.27;;;;;;;;;;2074324;28;20226;-54
2021/11/05 05:26:46;;;;;;;35.75;20.65;;;;;;;;;;2081596;28;20187;-55
2021/11/05 05:27:47;;;;;;;29.02;18.40;;;;;;;;;;2073715;28;20653;-52
2021/11/05 05:28:48;;;;;;;30.20;17.93;;;;;;;;;;2066646;28;20662;-55
2021/11/05 05:29:50;;;;;;;33.03;20.00;;;;;;;;;;2068028;28;20185;-53
2021/11/05 05:30:53;;;;;;;35.47;20.47;;;;;;;;;;2079688;28;20517;-55
2021/11/05 05:31:53;;;;;;;27.08;17.77;;;;;;;;;;2076687;28;20177;-52
2021/11/05 05:32:54;;;;;;;33.37;19.90;;;;;;;;;;2080024;28;20172;-51
2021/11/05 05:33:54;;;;;;;32.95;19.95;;;;;;;;;;2080417;28;20206;-53
2021/11/05 05:34:54;;;;;;;34.00;19.15;;;;;;;;;;2069099;28;20192;-54
2021/11/05 05:35:54;;;;;;;29.15;18.27;;;;;;;;;;2081993;28;20711;-54
2021/11/05 05:36:55;;;;;;;32.05;19.15;;;;;;;;;;2068141;28;20197;-52
2021/11/05 05:37:56;;;;;;;33.88;19.92;;;;;;;;;;2080696;28;20242;-51
2021/11/05 05:38:56;;;;;;;32.90;20.52;;;;;;;;;;2070226;28;20671;-54
2021/11/05 05:39:56;;;;;;;36.10;19.87;;;;;;;;;;2076524;28;20179;-56
2021/11/05 05:40:57;;;;;;;31.23;19.20;;;;;;;;;;2067625;28;20205;-53
2021/11/05 05:41:57;;;;;;;30.17;19.20;;;;;;;;;;2080588;28;20587;-52
2021/11/05 05:42:57;;;;;;;30.02;19.13;;;;;;;;;;2074097;28;20288;-53
2021/11/05 05:43:58;;;;;;;28.90;18.30;;;;;;;;;;2077134;28;20267;-52
2021/11/05 05:44:58;;;;;;;27.67;17.70;;;;;;;;;;2069137;28;20200;-52
2021/11/05 05:45:58;;;;;;;29.15;19.20;;;;;;;;;;2076995;28;20193;-55
2021/11/05 05:46:59;;;;;;;28.53;17.73;;;;;;;;;;2071337;28;20661;-55
2021/11/05 05:47:59;;;;;;;29.60;19.17;;;;;;;;;;2065733;28;20205;-52
2021/11/05 05:48:59;;;;;;;35.08;19.52;;;;;;;;;;2080127;28;20559;-52
2021/11/05 05:50:00;;;;;;;26.50;17.83;;;;;;;;;;2073703;28;20165;-52
2021/11/05 05:51:00;;;;;;;32.75;18.98;;;;;;;;;;2078430;28;20177;-54
2021/11/05 05:52:00;;;;;;;31.20;18.67;;;;;;;;;;2069468;28;20208;-52